sensor_id;sensor_type;location;lat;lon;timestamp;P1;durP1;ratioP1;P2;durP2;ratioP2
28523;SDS011;15734;50.904;6.922;2022-10-17T00:00:19;12.20;;;6.68;;
28523;SDS011;15734;50.904;6.922;2022-10-17T00:02:45;15.20;;;6.13;;
28523;SDS011;15734;50.904;6.922;2022-10-17T00:05:10;13.45;;;6.78;;
28523;SDS011;15734;50.904;6.922;2022-10-17T00:07:36;11.48;;;5.78;;
28523;SDS011;15734;50.904;6.922;2022-10-17T00:10:02;11.23;;;5.65;;
28523;SDS011;15734;50.904;6.922;2022-10-17T00:12:29;16.85;;;6.18;;
28523;SDS011;15734;50.904;6.922;2022-10-17T00:14:54;17.60;;;5.55;;
28523;SDS011;15734;50.904;6.922;2022-10-17T00:17:20;11.85;;;6.03;;
28523;SDS011;15734;50.904;6.922;2022-10-17T00:19:45;11.65;;;5.22;;
28523;SDS011;15734;50.904;6.922;2022-10-17T00:22:11;13.40;;;6.50;;
28523;SDS011;15734;50.904;6.922;2022-10-17T00:24:37;10.55;;;5.15;;
28523;SDS011;15734;50.904;6.922;2022-10-17T00:27:03;16.30;;;5.93;;
28523;SDS011;15734;50.904;6.922;2022-10-17T00:29:28;10.88;;;5.72;;
28523;SDS011;15734;50.904;6.922;2022-10-17T00:31:54;14.90;;;5.50;;
28523;SDS011;15734;50.904;6.922;2022-10-17T00:34:21;14.57;;;6.82;;
28523;SDS011;15734;50.904;6.922;2022-10-17T00:36:47;10.35;;;6.60;;
28523;SDS011;15734;50.904;6.922;2022-10-17T00:39:12;16.50;;;7.00;;
28523;SDS011;15734;50.904;6.922;2022-10-17T00:41:38;11.77;;;5.97;;
28523;SDS011;15734;50.904;6.922;2022-10-17T00:44:04;18.67;;;7.18;;
28523;SDS011;15734;50.904;6.922;2022-10-17T00:46:36;14.95;;;6.30;;
28523;SDS011;15734;50.904;6.922;2022-10-17T00:49:05;12.02;;;6.82;;
28523;SDS011;15734;50.904;6.922;2022-10-17T00:51:33;14.25;;;7.07;;
28523;SDS011;15734;50.904;6.922;2022-10-17T00:54:03;10.48;;;6.65;;
28523;SDS011;15734;50.904;6.922;2022-10-17T00:56:30;9.77;;;6.07;;
28523;SDS011;15734;50.904;6.922;2022-10-17T00:58:56;16.08;;;7.72;;
28523;SDS011;15734;50.904;6.922;2022-10-17T01:01:22;15.07;;;7.47;;
28523;SDS011;15734;50.904;6.922;2022-10-17T01:03:47;12.48;;;6.10;;
28523;SDS011;15734;50.904;6.922;2022-10-17T01:06:13;10.70;;;6.13;;
28523;SDS011;15734;50.904;6.922;2022-10-17T01:08:39;17.02;;;7.18;;
28523;SDS011;15734;50.904;6.922;2022-10-17T01:13:44;20.00;;;8.27;;
28523;SDS011;15734;50.904;6.922;2022-10-17T01:16:27;19.85;;;7.63;;
28523;SDS011;15734;50.904;6.922;2022-10-17T01:19:16;18.55;;;7.55;;
28523;SDS011;15734;50.904;6.922;2022-10-17T01:21:55;21.38;;;8.05;;
28523;SDS011;15734;50.904;6.922;2022-10-17T01:27:24;15.25;;;7.10;;
28523;SDS011;15734;50.904;6.922;2022-10-17T01:35:44;10.27;;;6.32;;
28523;SDS011;15734;50.904;6.922;2022-10-17T01:38:20;12.82;;;6.70;;
28523;SDS011;15734;50.904;6.922;2022-10-17T01:43:44;16.27;;;6.05;;
28523;SDS011;15734;50.904;6.922;2022-10-17T01:46:33;15.55;;;6.80;;
28523;SDS011;15734;50.904;6.922;2022-10-17T01:49:03;15.45;;;6.35;;
28523;SDS011;15734;50.904;6.922;2022-10-17T01:51:37;12.98;;;7.05;;
28523;SDS011;15734;50.904;6.922;2022-10-17T01:54:23;16.27;;;6.70;;
28523;SDS011;15734;50.904;6.922;2022-10-17T01:57:03;12.07;;;5.47;;
28523;SDS011;15734;50.904;6.922;2022-10-17T01:59:35;15.32;;;7.13;;
28523;SDS011;15734;50.904;6.922;2022-10-17T02:02:04;19.17;;;6.68;;
28523;SDS011;15734;50.904;6.922;2022-10-17T02:04:30;16.05;;;7.50;;
28523;SDS011;15734;50.904;6.922;2022-10-17T02:06:56;15.15;;;7.15;;
28523;SDS011;15734;50.904;6.922;2022-10-17T02:09:29;13.30;;;6.32;;
28523;SDS011;15734;50.904;6.922;2022-10-17T02:30:35;13.43;;;7.25;;
28523;SDS011;15734;50.904;6.922;2022-10-17T02:33:20;13.90;;;6.22;;
28523;SDS011;15734;50.904;6.922;2022-10-17T02:35:51;18.88;;;6.85;;
28523;SDS011;15734;50.904;6.922;2022-10-17T02:38:20;17.65;;;6.50;;
28523;SDS011;15734;50.904;6.922;2022-10-17T02:40:49;9.57;;;5.88;;
28523;SDS011;15734;50.904;6.922;2022-10-17T02:43:17;12.13;;;6.38;;
28523;SDS011;15734;50.904;6.922;2022-10-17T02:45:43;12.50;;;6.00;;
28523;SDS011;15734;50.904;6.922;2022-10-17T02:48:15;25.10;;;7.38;;
28523;SDS011;15734;50.904;6.922;2022-10-17T02:53:29;9.05;;;5.82;;
28523;SDS011;15734;50.904;6.922;2022-10-17T02:56:05;9.73;;;5.82;;
28523;SDS011;15734;50.904;6.922;2022-10-17T02:58:38;11.13;;;7.00;;
28523;SDS011;15734;50.904;6.922;2022-10-17T03:01:05;13.15;;;6.53;;
28523;SDS011;15734;50.904;6.922;2022-10-17T03:03:31;8.68;;;5.93;;
28523;SDS011;15734;50.904;6.922;2022-10-17T03:05:57;20.70;;;6.55;;
28523;SDS011;15734;50.904;6.922;2022-10-17T03:08:22;9.77;;;6.32;;
28523;SDS011;15734;50.904;6.922;2022-10-17T03:10:48;14.43;;;6.65;;
28523;SDS011;15734;50.904;6.922;2022-10-17T03:13:14;13.90;;;6.32;;
28523;SDS011;15734;50.904;6.922;2022-10-17T03:15:41;8.93;;;5.97;;
28523;SDS011;15734;50.904;6.922;2022-10-17T03:18:06;14.57;;;5.97;;
28523;SDS011;15734;50.904;6.922;2022-10-17T03:20:32;13.88;;;5.93;;
28523;SDS011;15734;50.904;6.922;2022-10-17T03:22:57;12.43;;;6.82;;
28523;SDS011;15734;50.904;6.922;2022-10-17T03:25:23;13.20;;;6.72;;
28523;SDS011;15734;50.904;6.922;2022-10-17T03:27:49;11.60;;;7.93;;
28523;SDS011;15734;50.904;6.922;2022-10-17T03:30:15;12.88;;;7.05;;
28523;SDS011;15734;50.904;6.922;2022-10-17T03:32:41;17.17;;;8.00;;
28523;SDS011;15734;50.904;6.922;2022-10-17T03:35:06;12.02;;;6.70;;
28523;SDS011;15734;50.904;6.922;2022-10-17T03:37:32;11.95;;;6.82;;
28523;SDS011;15734;50.904;6.922;2022-10-17T03:39:57;14.55;;;6.80;;
28523;SDS011;15734;50.904;6.922;2022-10-17T03:42:23;24.45;;;7.93;;
28523;SDS011;15734;50.904;6.922;2022-10-17T03:44:48;18.42;;;7.63;;
28523;SDS011;15734;50.904;6.922;2022-10-17T03:47:14;19.55;;;7.47;;
28523;SDS011;15734;50.904;6.922;2022-10-17T03:49:39;16.80;;;6.50;;
28523;SDS011;15734;50.904;6.922;2022-10-17T03:52:05;12.57;;;7.05;;
28523;SDS011;15734;50.904;6.922;2022-10-17T03:54:34;12.75;;;7.20;;
28523;SDS011;15734;50.904;6.922;2022-10-17T03:57:00;15.50;;;6.57;;
28523;SDS011;15734;50.904;6.922;2022-10-17T03:59:25;14.70;;;7.10;;
28523;SDS011;15734;50.904;6.922;2022-10-17T04:01:51;11.60;;;6.78;;
28523;SDS011;15734;50.904;6.922;2022-10-17T04:04:16;24.10;;;7.63;;
28523;SDS011;15734;50.904;6.922;2022-10-17T04:06:42;13.38;;;7.07;;
28523;SDS011;15734;50.904;6.922;2022-10-17T04:09:08;20.65;;;7.00;;
28523;SDS011;15734;50.904;6.922;2022-10-17T04:11:34;11.00;;;6.57;;
28523;SDS011;15734;50.904;6.922;2022-10-17T04:14:00;15.52;;;6.90;;
28523;SDS011;15734;50.904;6.922;2022-10-17T04:16:27;26.30;;;7.70;;
28523;SDS011;15734;50.904;6.922;2022-10-17T04:18:53;19.30;;;7.68;;
28523;SDS011;15734;50.904;6.922;2022-10-17T04:21:20;17.10;;;7.15;;
28523;SDS011;15734;50.904;6.922;2022-10-17T04:23:47;14.85;;;6.18;;
28523;SDS011;15734;50.904;6.922;2022-10-17T04:26:12;14.40;;;6.95;;
28523;SDS011;15734;50.904;6.922;2022-10-17T04:28:38;14.27;;;7.25;;
28523;SDS011;15734;50.904;6.922;2022-10-17T04:31:04;14.57;;;7.28;;
28523;SDS011;15734;50.904;6.922;2022-10-17T04:33:32;13.80;;;7.40;;
28523;SDS011;15734;50.904;6.922;2022-10-17T04:36:03;9.52;;;6.60;;
28523;SDS011;15734;50.904;6.922;2022-10-17T04:38:29;12.75;;;6.93;;
28523;SDS011;15734;50.904;6.922;2022-10-17T04:40:56;14.18;;;7.20;;
28523;SDS011;15734;50.904;6.922;2022-10-17T04:43:22;12.32;;;7.15;;
28523;SDS011;15734;50.904;6.922;2022-10-17T04:45:48;10.68;;;7.30;;
28523;SDS011;15734;50.904;6.922;2022-10-17T04:48:13;15.50;;;6.82;;
28523;SDS011;15734;50.904;6.922;2022-10-17T04:50:39;18.52;;;6.57;;
28523;SDS011;15734;50.904;6.922;2022-10-17T04:53:04;16.67;;;7.40;;
28523;SDS011;15734;50.904;6.922;2022-10-17T04:55:30;16.17;;;8.02;;
28523;SDS011;15734;50.904;6.922;2022-10-17T04:57:55;21.40;;;7.30;;
28523;SDS011;15734;50.904;6.922;2022-10-17T05:00:21;18.60;;;8.70;;
28523;SDS011;15734;50.904;6.922;2022-10-17T05:02:46;18.55;;;7.47;;
28523;SDS011;15734;50.904;6.922;2022-10-17T05:05:12;26.52;;;8.52;;
28523;SDS011;15734;50.904;6.922;2022-10-17T05:07:40;23.88;;;7.35;;
28523;SDS011;15734;50.904;6.922;2022-10-17T05:10:06;25.00;;;8.52;;
28523;SDS011;15734;50.904;6.922;2022-10-17T05:12:32;22.67;;;7.90;;
28523;SDS011;15734;50.904;6.922;2022-10-17T05:14:57;19.10;;;7.43;;
28523;SDS011;15734;50.904;6.922;2022-10-17T05:17:23;17.10;;;7.28;;
28523;SDS011;15734;50.904;6.922;2022-10-17T05:19:48;26.65;;;9.05;;
28523;SDS011;15734;50.904;6.922;2022-10-17T05:22:14;13.45;;;6.75;;
28523;SDS011;15734;50.904;6.922;2022-10-17T05:24:39;12.82;;;6.88;;
28523;SDS011;15734;50.904;6.922;2022-10-17T05:27:05;19.75;;;7.38;;
28523;SDS011;15734;50.904;6.922;2022-10-17T05:29:30;32.28;;;8.30;;
28523;SDS011;15734;50.904;6.922;2022-10-17T05:31:56;16.08;;;6.63;;
28523;SDS011;15734;50.904;6.922;2022-10-17T05:34:22;15.85;;;6.32;;
28523;SDS011;15734;50.904;6.922;2022-10-17T05:36:49;13.88;;;5.65;;
28523;SDS011;15734;50.904;6.922;2022-10-17T05:39:14;12.90;;;5.82;;
28523;SDS011;15734;50.904;6.922;2022-10-17T05:41:43;10.68;;;5.72;;
28523;SDS011;15734;50.904;6.922;2022-10-17T05:44:09;13.82;;;5.85;;
28523;SDS011;15734;50.904;6.922;2022-10-17T05:46:35;19.77;;;7.68;;
28523;SDS011;15734;50.904;6.922;2022-10-17T05:49:00;11.73;;;6.03;;
28523;SDS011;15734;50.904;6.922;2022-10-17T05:51:26;17.98;;;6.10;;
28523;SDS011;15734;50.904;6.922;2022-10-17T05:53:51;19.63;;;6.55;;
28523;SDS011;15734;50.904;6.922;2022-10-17T05:56:17;20.15;;;6.95;;
28523;SDS011;15734;50.904;6.922;2022-10-17T05:58:44;9.43;;;5.32;;
28523;SDS011;15734;50.904;6.922;2022-10-17T06:01:09;12.27;;;5.80;;
28523;SDS011;15734;50.904;6.922;2022-10-17T06:03:36;16.17;;;6.00;;
28523;SDS011;15734;50.904;6.922;2022-10-17T06:06:06;9.90;;;5.95;;
28523;SDS011;15734;50.904;6.922;2022-10-17T06:08:33;12.27;;;6.18;;
28523;SDS011;15734;50.904;6.922;2022-10-17T06:10:59;16.77;;;5.90;;
28523;SDS011;15734;50.904;6.922;2022-10-17T06:13:24;13.85;;;5.28;;
28523;SDS011;15734;50.904;6.922;2022-10-17T06:15:50;11.07;;;5.20;;
28523;SDS011;15734;50.904;6.922;2022-10-17T06:18:16;9.98;;;4.90;;
28523;SDS011;15734;50.904;6.922;2022-10-17T06:20:41;9.95;;;5.47;;
28523;SDS011;15734;50.904;6.922;2022-10-17T06:23:07;8.70;;;4.90;;
28523;SDS011;15734;50.904;6.922;2022-10-17T06:25:32;13.38;;;5.78;;
28523;SDS011;15734;50.904;6.922;2022-10-17T06:27:58;15.80;;;6.35;;
28523;SDS011;15734;50.904;6.922;2022-10-17T06:30:24;13.50;;;5.60;;
28523;SDS011;15734;50.904;6.922;2022-10-17T06:32:50;11.45;;;5.75;;
28523;SDS011;15734;50.904;6.922;2022-10-17T06:35:16;18.45;;;6.10;;
28523;SDS011;15734;50.904;6.922;2022-10-17T06:37:42;14.65;;;5.65;;
28523;SDS011;15734;50.904;6.922;2022-10-17T06:40:08;13.07;;;5.82;;
28523;SDS011;15734;50.904;6.922;2022-10-17T06:42:35;10.90;;;5.40;;
28523;SDS011;15734;50.904;6.922;2022-10-17T06:45:01;15.23;;;7.00;;
28523;SDS011;15734;50.904;6.922;2022-10-17T06:47:27;10.82;;;5.88;;
28523;SDS011;15734;50.904;6.922;2022-10-17T06:49:53;18.40;;;5.28;;
28523;SDS011;15734;50.904;6.922;2022-10-17T06:52:18;14.68;;;6.60;;
28523;SDS011;15734;50.904;6.922;2022-10-17T06:54:44;18.00;;;6.72;;
28523;SDS011;15734;50.904;6.922;2022-10-17T06:57:09;19.50;;;5.53;;
28523;SDS011;15734;50.904;6.922;2022-10-17T06:59:35;18.50;;;5.75;;
28523;SDS011;15734;50.904;6.922;2022-10-17T07:02:00;15.38;;;5.18;;
28523;SDS011;15734;50.904;6.922;2022-10-17T07:04:26;13.05;;;4.85;;
28523;SDS011;15734;50.904;6.922;2022-10-17T07:06:52;19.00;;;6.28;;
28523;SDS011;15734;50.904;6.922;2022-10-17T07:09:18;16.30;;;4.30;;
28523;SDS011;15734;50.904;6.922;2022-10-17T07:11:44;16.60;;;6.25;;
28523;SDS011;15734;50.904;6.922;2022-10-17T07:14:09;7.65;;;4.47;;
28523;SDS011;15734;50.904;6.922;2022-10-17T07:16:35;9.98;;;4.32;;
28523;SDS011;15734;50.904;6.922;2022-10-17T07:19:01;23.23;;;6.28;;
28523;SDS011;15734;50.904;6.922;2022-10-17T07:21:27;14.73;;;5.32;;
28523;SDS011;15734;50.904;6.922;2022-10-17T07:23:52;8.27;;;4.32;;
28523;SDS011;15734;50.904;6.922;2022-10-17T07:26:18;8.98;;;5.38;;
28523;SDS011;15734;50.904;6.922;2022-10-17T07:28:45;15.27;;;4.85;;
28523;SDS011;15734;50.904;6.922;2022-10-17T07:31:15;14.13;;;5.15;;
28523;SDS011;15734;50.904;6.922;2022-10-17T07:33:42;11.80;;;5.20;;
28523;SDS011;15734;50.904;6.922;2022-10-17T07:36:08;14.95;;;5.65;;
28523;SDS011;15734;50.904;6.922;2022-10-17T07:38:34;8.73;;;5.18;;
28523;SDS011;15734;50.904;6.922;2022-10-17T07:41:01;15.68;;;4.40;;
28523;SDS011;15734;50.904;6.922;2022-10-17T07:43:28;10.70;;;4.63;;
28523;SDS011;15734;50.904;6.922;2022-10-17T07:45:54;13.55;;;4.65;;
28523;SDS011;15734;50.904;6.922;2022-10-17T07:48:21;12.48;;;4.88;;
28523;SDS011;15734;50.904;6.922;2022-10-17T07:50:47;10.77;;;4.28;;
28523;SDS011;15734;50.904;6.922;2022-10-17T07:53:14;7.60;;;5.10;;
28523;SDS011;15734;50.904;6.922;2022-10-17T07:55:40;13.38;;;5.13;;
28523;SDS011;15734;50.904;6.922;2022-10-17T07:58:06;12.60;;;5.05;;
28523;SDS011;15734;50.904;6.922;2022-10-17T08:00:33;10.35;;;4.53;;
28523;SDS011;15734;50.904;6.922;2022-10-17T08:02:59;8.90;;;4.53;;
28523;SDS011;15734;50.904;6.922;2022-10-17T08:05:24;9.63;;;5.03;;
28523;SDS011;15734;50.904;6.922;2022-10-17T08:07:50;14.07;;;4.80;;
28523;SDS011;15734;50.904;6.922;2022-10-17T08:10:15;11.93;;;4.70;;
28523;SDS011;15734;50.904;6.922;2022-10-17T08:12:41;11.85;;;4.13;;
28523;SDS011;15734;50.904;6.922;2022-10-17T08:15:07;9.20;;;4.68;;
28523;SDS011;15734;50.904;6.922;2022-10-17T08:17:34;10.07;;;4.97;;
28523;SDS011;15734;50.904;6.922;2022-10-17T08:20:01;12.60;;;4.47;;
28523;SDS011;15734;50.904;6.922;2022-10-17T08:22:27;11.75;;;5.10;;
28523;SDS011;15734;50.904;6.922;2022-10-17T08:24:53;12.30;;;4.50;;
28523;SDS011;15734;50.904;6.922;2022-10-17T08:27:18;8.93;;;4.43;;
28523;SDS011;15734;50.904;6.922;2022-10-17T08:29:51;13.90;;;4.07;;
28523;SDS011;15734;50.904;6.922;2022-10-17T08:32:18;9.27;;;4.22;;
28523;SDS011;15734;50.904;6.922;2022-10-17T08:34:45;20.48;;;5.50;;
28523;SDS011;15734;50.904;6.922;2022-10-17T08:37:11;9.40;;;3.78;;
28523;SDS011;15734;50.904;6.922;2022-10-17T08:39:39;14.90;;;5.00;;
28523;SDS011;15734;50.904;6.922;2022-10-17T08:42:23;15.07;;;4.80;;
28523;SDS011;15734;50.904;6.922;2022-10-17T08:47:22;6.65;;;4.22;;
28523;SDS011;15734;50.904;6.922;2022-10-17T08:50:01;15.80;;;4.57;;
28523;SDS011;15734;50.904;6.922;2022-10-17T08:52:39;12.13;;;4.18;;
28523;SDS011;15734;50.904;6.922;2022-10-17T08:55:16;10.20;;;4.40;;
28523;SDS011;15734;50.904;6.922;2022-10-17T08:57:46;9.63;;;5.18;;
28523;SDS011;15734;50.904;6.922;2022-10-17T09:00:16;12.70;;;5.25;;
28523;SDS011;15734;50.904;6.922;2022-10-17T09:08:12;7.53;;;3.90;;
28523;SDS011;15734;50.904;6.922;2022-10-17T09:11:13;5.70;;;3.63;;
28523;SDS011;15734;50.904;6.922;2022-10-17T09:13:57;9.15;;;3.28;;
28523;SDS011;15734;50.904;6.922;2022-10-17T09:19:18;7.95;;;3.63;;
28523;SDS011;15734;50.904;6.922;2022-10-17T09:21:58;7.45;;;3.53;;
28523;SDS011;15734;50.904;6.922;2022-10-17T09:24:39;11.52;;;3.88;;
28523;SDS011;15734;50.904;6.922;2022-10-17T09:27:22;15.90;;;5.90;;
28523;SDS011;15734;50.904;6.922;2022-10-17T09:29:53;8.80;;;4.03;;
28523;SDS011;15734;50.904;6.922;2022-10-17T09:32:30;12.88;;;4.30;;
28523;SDS011;15734;50.904;6.922;2022-10-17T09:34:56;8.30;;;4.32;;
28523;SDS011;15734;50.904;6.922;2022-10-17T09:37:24;15.85;;;4.28;;
28523;SDS011;15734;50.904;6.922;2022-10-17T09:39:54;12.18;;;4.47;;
28523;SDS011;15734;50.904;6.922;2022-10-17T09:50:33;7.75;;;3.80;;
28523;SDS011;15734;50.904;6.922;2022-10-17T09:53:05;4.35;;;3.70;;
28523;SDS011;15734;50.904;6.922;2022-10-17T09:55:42;11.85;;;3.50;;
28523;SDS011;15734;50.904;6.922;2022-10-17T09:58:12;12.15;;;3.53;;
28523;SDS011;15734;50.904;6.922;2022-10-17T10:00:42;7.15;;;3.67;;
28523;SDS011;15734;50.904;6.922;2022-10-17T10:03:10;11.52;;;4.60;;
28523;SDS011;15734;50.904;6.922;2022-10-17T10:05:41;8.50;;;3.50;;
28523;SDS011;15734;50.904;6.922;2022-10-17T10:08:21;11.95;;;3.60;;
28523;SDS011;15734;50.904;6.922;2022-10-17T10:10:55;8.35;;;3.53;;
28523;SDS011;15734;50.904;6.922;2022-10-17T10:13:29;13.38;;;4.32;;
28523;SDS011;15734;50.904;6.922;2022-10-17T10:16:11;12.75;;;3.85;;
28523;SDS011;15734;50.904;6.922;2022-10-17T10:18:39;20.98;;;3.08;;
28523;SDS011;15734;50.904;6.922;2022-10-17T10:21:26;7.32;;;4.07;;
28523;SDS011;15734;50.904;6.922;2022-10-17T10:24:11;8.05;;;2.72;;
28523;SDS011;15734;50.904;6.922;2022-10-17T10:26:39;7.70;;;3.58;;
28523;SDS011;15734;50.904;6.922;2022-10-17T10:32:06;13.00;;;3.42;;
28523;SDS011;15734;50.904;6.922;2022-10-17T10:34:47;15.23;;;3.53;;
28523;SDS011;15734;50.904;6.922;2022-10-17T10:37:21;5.57;;;3.35;;
28523;SDS011;15734;50.904;6.922;2022-10-17T10:39:50;7.72;;;3.38;;
28523;SDS011;15734;50.904;6.922;2022-10-17T10:42:25;10.63;;;3.42;;
28523;SDS011;15734;50.904;6.922;2022-10-17T10:45:02;9.80;;;3.22;;
28523;SDS011;15734;50.904;6.922;2022-10-17T10:47:53;7.25;;;3.20;;
28523;SDS011;15734;50.904;6.922;2022-10-17T10:56:08;16.17;;;2.88;;
28523;SDS011;15734;50.904;6.922;2022-10-17T10:58:52;6.60;;;3.72;;
28523;SDS011;15734;50.904;6.922;2022-10-17T11:06:27;5.65;;;3.45;;
28523;SDS011;15734;50.904;6.922;2022-10-17T11:11:46;6.53;;;3.70;;
28523;SDS011;15734;50.904;6.922;2022-10-17T11:14:22;9.98;;;4.03;;
28523;SDS011;15734;50.904;6.922;2022-10-17T11:16:56;9.10;;;3.50;;
28523;SDS011;15734;50.904;6.922;2022-10-17T11:19:39;10.88;;;3.97;;
28523;SDS011;15734;50.904;6.922;2022-10-17T11:22:31;7.22;;;3.65;;
28523;SDS011;15734;50.904;6.922;2022-10-17T11:27:38;11.70;;;3.80;;
28523;SDS011;15734;50.904;6.922;2022-10-17T11:30:04;7.35;;;4.03;;
28523;SDS011;15734;50.904;6.922;2022-10-17T11:32:52;10.95;;;4.50;;
28523;SDS011;15734;50.904;6.922;2022-10-17T11:37:53;11.00;;;3.80;;
28523;SDS011;15734;50.904;6.922;2022-10-17T11:40:41;7.07;;;3.22;;
28523;SDS011;15734;50.904;6.922;2022-10-17T11:43:19;8.60;;;3.50;;
28523;SDS011;15734;50.904;6.922;2022-10-17T11:48:55;11.60;;;3.75;;
28523;SDS011;15734;50.904;6.922;2022-10-17T11:51:24;14.93;;;4.28;;
28523;SDS011;15734;50.904;6.922;2022-10-17T11:53:54;17.17;;;5.43;;
28523;SDS011;15734;50.904;6.922;2022-10-17T11:59:17;10.57;;;4.28;;
28523;SDS011;15734;50.904;6.922;2022-10-17T12:02:07;13.20;;;3.58;;
28523;SDS011;15734;50.904;6.922;2022-10-17T12:04:51;12.07;;;4.07;;
28523;SDS011;15734;50.904;6.922;2022-10-17T12:07:41;11.52;;;3.75;;
28523;SDS011;15734;50.904;6.922;2022-10-17T12:15:55;10.95;;;3.92;;
28523;SDS011;15734;50.904;6.922;2022-10-17T12:18:23;8.57;;;3.13;;
28523;SDS011;15734;50.904;6.922;2022-10-17T12:20:57;5.32;;;3.22;;
28523;SDS011;15734;50.904;6.922;2022-10-17T12:23:27;5.82;;;3.30;;
28523;SDS011;15734;50.904;6.922;2022-10-17T12:25:57;16.42;;;3.58;;
28523;SDS011;15734;50.904;6.922;2022-10-17T12:31:02;5.25;;;3.28;;
28523;SDS011;15734;50.904;6.922;2022-10-17T12:38:46;13.50;;;4.57;;
28523;SDS011;15734;50.904;6.922;2022-10-17T12:41:13;8.35;;;3.53;;
28523;SDS011;15734;50.904;6.922;2022-10-17T12:43:43;8.85;;;4.40;;
28523;SDS011;15734;50.904;6.922;2022-10-17T12:46:11;8.75;;;3.75;;
28523;SDS011;15734;50.904;6.922;2022-10-17T12:53:40;8.45;;;3.92;;
28523;SDS011;15734;50.904;6.922;2022-10-17T12:56:33;9.48;;;3.65;;
28523;SDS011;15734;50.904;6.922;2022-10-17T12:59:06;19.88;;;4.07;;
28523;SDS011;15734;50.904;6.922;2022-10-17T13:01:36;9.80;;;3.17;;
28523;SDS011;15734;50.904;6.922;2022-10-17T13:04:03;15.25;;;6.00;;
28523;SDS011;15734;50.904;6.922;2022-10-17T13:06:32;13.02;;;5.18;;
28523;SDS011;15734;50.904;6.922;2022-10-17T13:09:07;14.43;;;5.72;;
28523;SDS011;15734;50.904;6.922;2022-10-17T13:11:41;13.55;;;5.03;;
28523;SDS011;15734;50.904;6.922;2022-10-17T13:14:11;9.90;;;4.57;;
28523;SDS011;15734;50.904;6.922;2022-10-17T13:16:39;6.78;;;3.13;;
28523;SDS011;15734;50.904;6.922;2022-10-17T13:19:16;11.70;;;4.70;;
28523;SDS011;15734;50.904;6.922;2022-10-17T13:21:53;11.10;;;3.95;;
28523;SDS011;15734;50.904;6.922;2022-10-17T13:26:53;13.95;;;4.22;;
28523;SDS011;15734;50.904;6.922;2022-10-17T13:29:18;12.63;;;4.50;;
28523;SDS011;15734;50.904;6.922;2022-10-17T13:31:49;15.63;;;4.22;;
28523;SDS011;15734;50.904;6.922;2022-10-17T13:34:20;16.83;;;4.65;;
28523;SDS011;15734;50.904;6.922;2022-10-17T13:36:49;14.13;;;4.30;;
28523;SDS011;15734;50.904;6.922;2022-10-17T13:39:22;7.55;;;4.10;;
28523;SDS011;15734;50.904;6.922;2022-10-17T13:41:50;14.73;;;4.22;;
28523;SDS011;15734;50.904;6.922;2022-10-17T13:44:24;7.88;;;3.88;;
28523;SDS011;15734;50.904;6.922;2022-10-17T13:46:52;12.68;;;4.40;;
28523;SDS011;15734;50.904;6.922;2022-10-17T13:51:50;9.07;;;4.15;;
28523;SDS011;15734;50.904;6.922;2022-10-17T13:56:54;11.38;;;5.32;;
28523;SDS011;15734;50.904;6.922;2022-10-17T13:59:24;15.05;;;4.45;;
28523;SDS011;15734;50.904;6.922;2022-10-17T14:01:53;15.48;;;4.68;;
28523;SDS011;15734;50.904;6.922;2022-10-17T14:04:20;12.35;;;4.47;;
28523;SDS011;15734;50.904;6.922;2022-10-17T14:06:46;21.90;;;5.57;;
28523;SDS011;15734;50.904;6.922;2022-10-17T14:09:30;9.50;;;3.63;;
28523;SDS011;15734;50.904;6.922;2022-10-17T14:11:59;7.30;;;2.92;;
28523;SDS011;15734;50.904;6.922;2022-10-17T14:14:35;5.95;;;3.08;;
28523;SDS011;15734;50.904;6.922;2022-10-17T14:17:01;12.02;;;4.85;;
28523;SDS011;15734;50.904;6.922;2022-10-17T14:19:36;8.07;;;3.25;;
28523;SDS011;15734;50.904;6.922;2022-10-17T14:22:24;17.67;;;3.58;;
28523;SDS011;15734;50.904;6.922;2022-10-17T14:24:51;11.32;;;2.25;;
28523;SDS011;15734;50.904;6.922;2022-10-17T14:27:28;16.98;;;4.57;;
28523;SDS011;15734;50.904;6.922;2022-10-17T14:29:55;9.57;;;2.17;;
28523;SDS011;15734;50.904;6.922;2022-10-17T14:32:24;9.27;;;2.63;;
28523;SDS011;15734;50.904;6.922;2022-10-17T14:34:53;8.75;;;2.20;;
28523;SDS011;15734;50.904;6.922;2022-10-17T14:40:18;7.68;;;2.20;;
28523;SDS011;15734;50.904;6.922;2022-10-17T14:42:50;7.28;;;1.75;;
28523;SDS011;15734;50.904;6.922;2022-10-17T14:47:49;14.07;;;2.00;;
28523;SDS011;15734;50.904;6.922;2022-10-17T14:50:25;11.43;;;2.92;;
28523;SDS011;15734;50.904;6.922;2022-10-17T14:52:59;10.45;;;2.25;;
28523;SDS011;15734;50.904;6.922;2022-10-17T14:55:53;5.25;;;2.13;;
28523;SDS011;15734;50.904;6.922;2022-10-17T14:58:22;5.35;;;2.03;;
28523;SDS011;15734;50.904;6.922;2022-10-17T15:00:56;4.45;;;1.80;;
28523;SDS011;15734;50.904;6.922;2022-10-17T15:03:23;10.95;;;1.92;;
28523;SDS011;15734;50.904;6.922;2022-10-17T15:05:49;14.23;;;3.05;;
28523;SDS011;15734;50.904;6.922;2022-10-17T15:08:17;9.45;;;1.80;;
28523;SDS011;15734;50.904;6.922;2022-10-17T15:10:44;7.82;;;1.50;;
28523;SDS011;15734;50.904;6.922;2022-10-17T15:13:11;3.42;;;1.67;;
28523;SDS011;15734;50.904;6.922;2022-10-17T15:15:37;3.30;;;1.77;;
28523;SDS011;15734;50.904;6.922;2022-10-17T15:18:05;5.13;;;1.83;;
28523;SDS011;15734;50.904;6.922;2022-10-17T15:20:34;8.57;;;2.15;;
28523;SDS011;15734;50.904;6.922;2022-10-17T15:23:00;6.15;;;2.47;;
28523;SDS011;15734;50.904;6.922;2022-10-17T15:25:27;15.90;;;2.55;;
28523;SDS011;15734;50.904;6.922;2022-10-17T15:27:54;5.53;;;2.08;;
28523;SDS011;15734;50.904;6.922;2022-10-17T15:30:21;10.25;;;2.42;;
28523;SDS011;15734;50.904;6.922;2022-10-17T15:32:56;15.98;;;2.85;;
28523;SDS011;15734;50.904;6.922;2022-10-17T15:35:22;6.05;;;2.25;;
28523;SDS011;15734;50.904;6.922;2022-10-17T15:37:48;16.60;;;2.92;;
28523;SDS011;15734;50.904;6.922;2022-10-17T15:40:24;16.90;;;2.58;;
28523;SDS011;15734;50.904;6.922;2022-10-17T15:42:52;10.32;;;2.00;;
28523;SDS011;15734;50.904;6.922;2022-10-17T15:45:19;6.30;;;1.92;;
28523;SDS011;15734;50.904;6.922;2022-10-17T15:47:49;9.05;;;1.98;;
28523;SDS011;15734;50.904;6.922;2022-10-17T15:50:17;6.47;;;2.10;;
28523;SDS011;15734;50.904;6.922;2022-10-17T15:52:42;7.78;;;2.15;;
28523;SDS011;15734;50.904;6.922;2022-10-17T15:55:09;7.95;;;2.72;;
28523;SDS011;15734;50.904;6.922;2022-10-17T15:57:35;8.32;;;2.10;;
28523;SDS011;15734;50.904;6.922;2022-10-17T16:00:05;13.75;;;2.10;;
28523;SDS011;15734;50.904;6.922;2022-10-17T16:02:35;9.48;;;2.08;;
28523;SDS011;15734;50.904;6.922;2022-10-17T16:05:01;6.32;;;2.67;;
28523;SDS011;15734;50.904;6.922;2022-10-17T16:07:29;5.80;;;2.28;;
28523;SDS011;15734;50.904;6.922;2022-10-17T16:09:55;5.38;;;2.00;;
28523;SDS011;15734;50.904;6.922;2022-10-17T16:12:21;4.35;;;2.00;;
28523;SDS011;15734;50.904;6.922;2022-10-17T16:14:51;4.88;;;2.22;;
28523;SDS011;15734;50.904;6.922;2022-10-17T16:17:17;9.07;;;2.35;;
28523;SDS011;15734;50.904;6.922;2022-10-17T16:19:43;7.00;;;2.42;;
28523;SDS011;15734;50.904;6.922;2022-10-17T16:22:11;7.55;;;2.22;;
28523;SDS011;15734;50.904;6.922;2022-10-17T16:24:46;9.63;;;3.15;;
28523;SDS011;15734;50.904;6.922;2022-10-17T16:27:12;14.75;;;3.15;;
28523;SDS011;15734;50.904;6.922;2022-10-17T16:29:38;15.75;;;2.58;;
28523;SDS011;15734;50.904;6.922;2022-10-17T16:32:03;23.13;;;4.55;;
28523;SDS011;15734;50.904;6.922;2022-10-17T16:34:29;13.00;;;3.25;;
28523;SDS011;15734;50.904;6.922;2022-10-17T16:36:56;12.23;;;3.42;;
28523;SDS011;15734;50.904;6.922;2022-10-17T16:39:21;14.07;;;3.17;;
28523;SDS011;15734;50.904;6.922;2022-10-17T16:41:47;19.48;;;3.58;;
28523;SDS011;15734;50.904;6.922;2022-10-17T16:44:12;10.38;;;4.28;;